sensor_id;sensor_type;location;lat;lon;timestamp;pressure;altitude;pressure_sealevel;temperature;humidity
5296;BME280;2670;42.720;23.336;2022-07-21T00:00:25;-23016.38;;;19.81;nan
5296;BME280;2670;42.720;23.336;2022-07-21T00:02:53;-23015.66;;;19.79;nan
5296;BME280;2670;42.720;23.336;2022-07-21T00:05:21;-23013.16;;;19.70;nan
5296;BME280;2670;42.720;23.336;2022-07-21T00:07:48;-23014.47;;;19.75;nan
5296;BME280;2670;42.720;23.336;2022-07-21T00:10:17;-23014.03;;;19.73;nan
5296;BME280;2670;42.720;23.336;2022-07-21T00:12:44;-23013.16;;;19.70;nan
5296;BME280;2670;42.720;23.336;2022-07-21T00:15:11;-23013.16;;;19.70;nan
5296;BME280;2670;42.720;23.336;2022-07-21T00:17:39;-23010.38;;;19.60;nan
5296;BME280;2670;42.720;23.336;2022-07-21T00:20:07;-23009.63;;;19.58;nan
5296;BME280;2670;42.720;23.336;2022-07-21T00:22:35;-23009.94;;;19.59;nan
5296;BME280;2670;42.720;23.336;2022-07-21T00:25:02;-23009.63;;;19.58;nan
5296;BME280;2670;42.720;23.336;2022-07-21T00:27:30;-23008.47;;;19.54;nan
5296;BME280;2670;42.720;23.336;2022-07-21T00:29:57;-23005.53;;;19.44;nan
5296;BME280;2670;42.720;23.336;2022-07-21T00:32:24;-23004.38;;;19.39;nan
5296;BME280;2670;42.720;23.336;2022-07-21T00:34:51;-23003.03;;;19.35;nan
5296;BME280;2670;42.720;23.336;2022-07-21T00:37:17;-23000.25;;;19.25;nan
5296;BME280;2670;42.720;23.336;2022-07-21T00:39:44;-23002.47;;;19.33;nan
5296;BME280;2670;42.720;23.336;2022-07-21T00:42:20;-23007.16;;;19.49;nan
5296;BME280;2670;42.720;23.336;2022-07-21T00:44:48;-23012.13;;;19.67;nan
5296;BME280;2670;42.720;23.336;2022-07-21T00:49:44;-23008.47;;;19.54;nan
5296;BME280;2670;42.720;23.336;2022-07-21T00:52:11;-23005.53;;;19.44;nan
5296;BME280;2670;42.720;23.336;2022-07-21T00:54:38;-23002.03;;;19.31;nan
5296;BME280;2670;42.720;23.336;2022-07-21T00:57:05;-23000.84;;;19.27;nan
5296;BME280;2670;42.720;23.336;2022-07-21T00:59:32;-22999.69;;;19.23;nan
5296;BME280;2670;42.720;23.336;2022-07-21T01:02:00;-22995.00;;;19.07;nan
5296;BME280;2670;42.720;23.336;2022-07-21T01:04:27;-22991.19;;;18.94;nan
5296;BME280;2670;42.720;23.336;2022-07-21T01:06:54;-22992.06;;;18.97;nan
5296;BME280;2670;42.720;23.336;2022-07-21T01:09:21;-22988.84;;;18.85;nan
5296;BME280;2670;42.720;23.336;2022-07-21T01:11:49;-22985.00;;;18.72;nan
5296;BME280;2670;42.720;23.336;2022-07-21T01:16:42;-22986.78;;;18.78;nan
5296;BME280;2670;42.720;23.336;2022-07-21T01:19:11;-22990.88;;;18.92;nan
5296;BME280;2670;42.720;23.336;2022-07-21T01:21:41;-22988.38;;;18.84;nan
5296;BME280;2670;42.720;23.336;2022-07-21T01:24:08;-22988.53;;;18.84;nan
5296;BME280;2670;42.720;23.336;2022-07-21T01:26:40;-22987.94;;;18.82;nan
5296;BME280;2670;42.720;23.336;2022-07-21T01:29:07;-22986.63;;;18.78;nan
5296;BME280;2670;42.720;23.336;2022-07-21T01:31:34;-22986.47;;;18.77;nan
5296;BME280;2670;42.720;23.336;2022-07-21T01:34:01;-22985.75;;;18.75;nan
5296;BME280;2670;42.720;23.336;2022-07-21T01:36:27;-22984.88;;;18.72;nan
5296;BME280;2670;42.720;23.336;2022-07-21T01:38:56;-22983.09;;;18.65;nan
5296;BME280;2670;42.720;23.336;2022-07-21T01:41:40;-22985.47;;;18.74;nan
5296;BME280;2670;42.720;23.336;2022-07-21T01:44:08;-22990.72;;;18.92;nan
5296;BME280;2670;42.720;23.336;2022-07-21T01:46:36;-22992.19;;;18.97;nan
5296;BME280;2670;42.720;23.336;2022-07-21T01:49:04;-22988.38;;;18.84;nan
5296;BME280;2670;42.720;23.336;2022-07-21T01:51:32;-22991.31;;;18.94;nan
5296;BME280;2670;42.720;23.336;2022-07-21T01:54:00;-22987.06;;;18.79;nan
5296;BME280;2670;42.720;23.336;2022-07-21T01:56:27;-22987.94;;;18.82;nan
5296;BME280;2670;42.720;23.336;2022-07-21T01:58:55;-22988.69;;;18.85;nan
5296;BME280;2670;42.720;23.336;2022-07-21T02:01:23;-22988.09;;;18.83;nan
5296;BME280;2670;42.720;23.336;2022-07-21T02:03:52;-22984.44;;;18.70;nan
5296;BME280;2670;42.720;23.336;2022-07-21T02:06:18;-22984.00;;;18.69;nan
5296;BME280;2670;42.720;23.336;2022-07-21T02:08:45;-22984.28;;;18.70;nan
5296;BME280;2670;42.720;23.336;2022-07-21T02:11:14;-22982.38;;;18.63;nan
5296;BME280;2670;42.720;23.336;2022-07-21T02:13:42;-22976.34;;;18.42;nan
5296;BME280;2670;42.720;23.336;2022-07-21T02:16:09;-22974.75;;;18.36;nan
5296;BME280;2670;42.720;23.336;2022-07-21T02:18:36;-22973.72;;;18.33;nan
5296;BME280;2670;42.720;23.336;2022-07-21T02:21:03;-22976.22;;;18.41;nan
5296;BME280;2670;42.720;23.336;2022-07-21T02:23:31;-22974.59;;;18.36;nan
5296;BME280;2670;42.720;23.336;2022-07-21T02:25:59;-22971.22;;;18.24;nan
5296;BME280;2670;42.720;23.336;2022-07-21T02:28:27;-22971.81;;;18.26;nan
5296;BME280;2670;42.720;23.336;2022-07-21T02:30:54;-22969.47;;;18.18;nan
5296;BME280;2670;42.720;23.336;2022-07-21T02:33:21;-22968.28;;;18.14;nan
5296;BME280;2670;42.720;23.336;2022-07-21T02:35:48;-22967.69;;;18.12;nan
5296;BME280;2670;42.720;23.336;2022-07-21T02:38:15;-22969.91;;;18.20;nan
5296;BME280;2670;42.720;23.336;2022-07-21T02:40:42;-22972.84;;;18.30;nan
5296;BME280;2670;42.720;23.336;2022-07-21T02:43:09;-22972.09;;;18.27;nan
5296;BME280;2670;42.720;23.336;2022-07-21T02:45:37;-22969.31;;;18.17;nan
5296;BME280;2670;42.720;23.336;2022-07-21T02:48:07;-22967.84;;;18.12;nan
5296;BME280;2670;42.720;23.336;2022-07-21T02:50:35;-22968.44;;;18.14;nan
5296;BME280;2670;42.720;23.336;2022-07-21T02:53:05;-22971.81;;;18.26;nan
5296;BME280;2670;42.720;23.336;2022-07-21T02:55:32;-22970.19;;;18.21;nan
5296;BME280;2670;42.720;23.336;2022-07-21T02:58:07;-22973.88;;;18.33;nan
5296;BME280;2670;42.720;23.336;2022-07-21T03:00:35;-22974.31;;;18.35;nan
5296;BME280;2670;42.720;23.336;2022-07-21T03:03:03;-22966.66;;;18.08;nan
5296;BME280;2670;42.720;23.336;2022-07-21T03:05:30;-22962.72;;;17.95;nan
5296;BME280;2670;42.720;23.336;2022-07-21T03:07:57;-22962.56;;;17.94;nan
5296;BME280;2670;42.720;23.336;2022-07-21T03:10:24;-22960.38;;;17.86;nan
5296;BME280;2670;42.720;23.336;2022-07-21T03:12:50;-22959.78;;;17.84;nan
5296;BME280;2670;42.720;23.336;2022-07-21T03:15:17;-22960.38;;;17.86;nan
5296;BME280;2670;42.720;23.336;2022-07-21T03:17:44;-22964.19;;;18.00;nan
5296;BME280;2670;42.720;23.336;2022-07-21T03:20:12;-22963.59;;;17.98;nan
5296;BME280;2670;42.720;23.336;2022-07-21T03:22:39;-22958.31;;;17.79;nan
5296;BME280;2670;42.720;23.336;2022-07-21T03:25:07;-22954.78;;;17.67;nan
5296;BME280;2670;42.720;23.336;2022-07-21T03:27:33;-22958.31;;;17.79;nan
5296;BME280;2670;42.720;23.336;2022-07-21T03:30:04;-22954.91;;;17.67;nan
5296;BME280;2670;42.720;23.336;2022-07-21T03:32:31;-22956.09;;;17.72;nan
5296;BME280;2670;42.720;23.336;2022-07-21T03:34:58;-22961.97;;;17.92;nan
5296;BME280;2670;42.720;23.336;2022-07-21T03:37:26;-22964.47;;;18.01;nan
5296;BME280;2670;42.720;23.336;2022-07-21T03:39:53;-22962.41;;;17.94;nan
5296;BME280;2670;42.720;23.336;2022-07-21T03:42:20;-22961.25;;;17.89;nan
5296;BME280;2670;42.720;23.336;2022-07-21T03:44:47;-22960.66;;;17.87;nan
5296;BME280;2670;42.720;23.336;2022-07-21T03:47:14;-22964.47;;;18.01;nan
5296;BME280;2670;42.720;23.336;2022-07-21T03:49:41;-22962.13;;;17.92;nan
5296;BME280;2670;42.720;23.336;2022-07-21T03:52:08;-22960.66;;;17.87;nan
5296;BME280;2670;42.720;23.336;2022-07-21T03:54:36;-22960.22;;;17.86;nan
5296;BME280;2670;42.720;23.336;2022-07-21T03:57:03;-22957.13;;;17.75;nan
5296;BME280;2670;42.720;23.336;2022-07-21T03:59:30;-22957.28;;;17.76;nan
5296;BME280;2670;42.720;23.336;2022-07-21T04:01:57;-22955.22;;;17.68;nan
5296;BME280;2670;42.720;23.336;2022-07-21T04:04:23;-22955.94;;;17.71;nan
5296;BME280;2670;42.720;23.336;2022-07-21T04:06:50;-22953.31;;;17.62;nan
5296;BME280;2670;42.720;23.336;2022-07-21T04:09:17;-22952.00;;;17.57;nan
5296;BME280;2670;42.720;23.336;2022-07-21T04:11:45;-22954.03;;;17.64;nan
5296;BME280;2670;42.720;23.336;2022-07-21T04:14:12;-22954.63;;;17.66;nan
5296;BME280;2670;42.720;23.336;2022-07-21T04:16:38;-22956.84;;;17.74;nan
5296;BME280;2670;42.720;23.336;2022-07-21T04:19:05;-22959.78;;;17.84;nan
5296;BME280;2670;42.720;23.336;2022-07-21T04:21:32;-22959.47;;;17.83;nan
5296;BME280;2670;42.720;23.336;2022-07-21T04:23:59;-22965.66;;;18.05;nan
5296;BME280;2670;42.720;23.336;2022-07-21T04:26:25;-22962.13;;;17.92;nan
5296;BME280;2670;42.720;23.336;2022-07-21T04:28:55;-22963.28;;;17.97;nan
5296;BME280;2670;42.720;23.336;2022-07-21T04:31:21;-22965.66;;;18.05;nan
5296;BME280;2670;42.720;23.336;2022-07-21T04:33:48;-22968.13;;;18.13;nan
5296;BME280;2670;42.720;23.336;2022-07-21T04:36:15;-22966.66;;;18.08;nan
5296;BME280;2670;42.720;23.336;2022-07-21T04:38:42;-22966.66;;;18.08;nan
5296;BME280;2670;42.720;23.336;2022-07-21T04:41:08;-22968.72;;;18.15;nan
5296;BME280;2670;42.720;23.336;2022-07-21T04:43:35;-22969.31;;;18.17;nan
5296;BME280;2670;42.720;23.336;2022-07-21T04:46:03;-22965.22;;;18.03;nan
5296;BME280;2670;42.720;23.336;2022-07-21T04:48:30;-22968.88;;;18.16;nan
5296;BME280;2670;42.720;23.336;2022-07-21T04:50:56;-22965.94;;;18.06;nan
5296;BME280;2670;42.720;23.336;2022-07-21T04:53:23;-22966.97;;;18.09;nan
5296;BME280;2670;42.720;23.336;2022-07-21T04:55:50;-22968.72;;;18.15;nan
5296;BME280;2670;42.720;23.336;2022-07-21T04:58:16;-22962.28;;;17.93;nan
5296;BME280;2670;42.720;23.336;2022-07-21T05:00:43;-22961.69;;;17.91;nan
5296;BME280;2670;42.720;23.336;2022-07-21T05:03:11;-22965.06;;;18.03;nan
5296;BME280;2670;42.720;23.336;2022-07-21T05:05:39;-22966.81;;;18.09;nan
5296;BME280;2670;42.720;23.336;2022-07-21T05:08:06;-22973.72;;;18.33;nan
5296;BME280;2670;42.720;23.336;2022-07-21T05:10:33;-22973.88;;;18.33;nan
5296;BME280;2670;42.720;23.336;2022-07-21T05:12:59;-22975.47;;;18.39;nan
5296;BME280;2670;42.720;23.336;2022-07-21T05:15:26;-22975.78;;;18.40;nan
5296;BME280;2670;42.720;23.336;2022-07-21T05:17:53;-22979.44;;;18.53;nan
5296;BME280;2670;42.720;23.336;2022-07-21T05:20:21;-22976.81;;;18.44;nan
5296;BME280;2670;42.720;23.336;2022-07-21T05:22:48;-22978.56;;;18.50;nan
5296;BME280;2670;42.720;23.336;2022-07-21T05:25:15;-22979.44;;;18.53;nan
5296;BME280;2670;42.720;23.336;2022-07-21T05:27:41;-22982.66;;;18.64;nan
5296;BME280;2670;42.720;23.336;2022-07-21T05:30:09;-22982.81;;;18.64;nan
5296;BME280;2670;42.720;23.336;2022-07-21T05:32:36;-22988.09;;;18.83;nan
5296;BME280;2670;42.720;23.336;2022-07-21T05:35:04;-22989.13;;;18.86;nan
5296;BME280;2670;42.720;23.336;2022-07-21T05:37:35;-22987.94;;;18.82;nan
5296;BME280;2670;42.720;23.336;2022-07-21T05:40:02;-22992.19;;;18.97;nan
5296;BME280;2670;42.720;23.336;2022-07-21T05:42:29;-22991.75;;;18.96;nan
5296;BME280;2670;42.720;23.336;2022-07-21T05:44:56;-22993.06;;;19.00;nan
5296;BME280;2670;42.720;23.336;2022-07-21T05:47:24;-22992.63;;;18.99;nan
5296;BME280;2670;42.720;23.336;2022-07-21T05:49:50;-22995.13;;;19.07;nan
5296;BME280;2670;42.720;23.336;2022-07-21T05:52:17;-22993.22;;;19.01;nan
5296;BME280;2670;42.720;23.336;2022-07-21T05:54:45;-22993.97;;;19.03;nan
5296;BME280;2670;42.720;23.336;2022-07-21T05:57:12;-22993.06;;;19.00;nan
5296;BME280;2670;42.720;23.336;2022-07-21T05:59:39;-22997.47;;;19.15;nan
5296;BME280;2670;42.720;23.336;2022-07-21T06:02:06;-22999.81;;;19.24;nan
5296;BME280;2670;42.720;23.336;2022-07-21T06:04:32;-23000.84;;;19.27;nan
5296;BME280;2670;42.720;23.336;2022-07-21T06:06:59;-23005.09;;;19.42;nan
5296;BME280;2670;42.720;23.336;2022-07-21T06:09:26;-23004.06;;;19.38;nan
5296;BME280;2670;42.720;23.336;2022-07-21T06:11:54;-23007.00;;;19.49;nan
5296;BME280;2670;42.720;23.336;2022-07-21T06:14:21;-23008.31;;;19.53;nan
5296;BME280;2670;42.720;23.336;2022-07-21T06:16:48;-23006.84;;;19.48;nan
5296;BME280;2670;42.720;23.336;2022-07-21T06:19:15;-23010.66;;;19.61;nan
5296;BME280;2670;42.720;23.336;2022-07-21T06:21:42;-23008.75;;;19.55;nan
5296;BME280;2670;42.720;23.336;2022-07-21T06:24:09;-23010.66;;;19.61;nan
5296;BME280;2670;42.720;23.336;2022-07-21T06:26:36;-23010.81;;;19.62;nan
5296;BME280;2670;42.720;23.336;2022-07-21T06:29:05;-23014.34;;;19.74;nan
5296;BME280;2670;42.720;23.336;2022-07-21T06:31:32;-23018.44;;;19.88;nan
5296;BME280;2670;42.720;23.336;2022-07-21T06:33:59;-23019.75;;;19.93;nan
5296;BME280;2670;42.720;23.336;2022-07-21T06:36:26;-23019.88;;;19.94;nan
5296;BME280;2670;42.720;23.336;2022-07-21T06:38:52;-23022.69;;;20.03;nan
5296;BME280;2670;42.720;23.336;2022-07-21T06:41:19;-23031.47;;;20.34;nan
5296;BME280;2670;42.720;23.336;2022-07-21T06:43:46;-23030.44;;;20.30;nan
5296;BME280;2670;42.720;23.336;2022-07-21T06:46:14;-23033.34;;;20.40;nan
5296;BME280;2670;42.720;23.336;2022-07-21T06:48:42;-23034.97;;;20.46;nan
5296;BME280;2670;42.720;23.336;2022-07-21T06:51:08;-23042.00;;;20.71;nan
5296;BME280;2670;42.720;23.336;2022-07-21T06:53:35;-23040.81;;;20.67;nan
5296;BME280;2670;42.720;23.336;2022-07-21T06:56:02;-23042.44;;;20.72;nan
5296;BME280;2670;42.720;23.336;2022-07-21T06:58:30;-23046.38;;;20.86;nan
5296;BME280;2670;42.720;23.336;2022-07-21T07:00:57;-23049.88;;;20.98;nan
5296;BME280;2670;42.720;23.336;2022-07-21T07:03:26;-23054.28;;;21.13;nan
5296;BME280;2670;42.720;23.336;2022-07-21T07:05:52;-23058.94;;;21.30;nan
5296;BME280;2670;42.720;23.336;2022-07-21T07:08:19;-23057.78;;;21.26;nan
5296;BME280;2670;42.720;23.336;2022-07-21T07:10:46;-23062.31;;;21.42;nan
5296;BME280;2670;42.720;23.336;2022-07-21T07:13:13;-23069.03;;;21.65;nan
5296;BME280;2670;42.720;23.336;2022-07-21T07:15:40;-23070.06;;;21.69;nan
5296;BME280;2670;42.720;23.336;2022-07-21T07:18:07;-23074.00;;;21.82;nan
5296;BME280;2670;42.720;23.336;2022-07-21T07:20:35;-23075.75;;;21.88;nan
5296;BME280;2670;42.720;23.336;2022-07-21T07:23:03;-23081.00;;;22.07;nan
5296;BME280;2670;42.720;23.336;2022-07-21T07:25:30;-23087.28;;;22.29;nan
5296;BME280;2670;42.720;23.336;2022-07-21T07:27:57;-23090.22;;;22.39;nan
5296;BME280;2670;42.720;23.336;2022-07-21T07:30:24;-23094.88;;;22.55;nan
5296;BME280;2670;42.720;23.336;2022-07-21T07:32:51;-23102.63;;;22.82;nan
5296;BME280;2670;42.720;23.336;2022-07-21T07:35:18;-23106.13;;;22.95;nan
5296;BME280;2670;42.720;23.336;2022-07-21T07:37:46;-23108.75;;;23.04;nan
5296;BME280;2670;42.720;23.336;2022-07-21T07:40:14;-23115.75;;;23.28;nan
5296;BME280;2670;42.720;23.336;2022-07-21T07:42:41;-23118.22;;;23.37;nan
5296;BME280;2670;42.720;23.336;2022-07-21T07:45:09;-23123.03;;;23.54;nan
5296;BME280;2670;42.720;23.336;2022-07-21T07:47:37;-23127.97;;;23.71;nan
5296;BME280;2670;42.720;23.336;2022-07-21T07:50:05;-23132.19;;;23.86;nan
5296;BME280;2670;42.720;23.336;2022-07-21T07:52:33;-23136.13;;;24.00;nan
5296;BME280;2670;42.720;23.336;2022-07-21T07:55:02;-23140.06;;;24.14;nan
5296;BME280;2670;42.720;23.336;2022-07-21T07:57:33;-23147.19;;;24.39;nan
5296;BME280;2670;42.720;23.336;2022-07-21T08:00:00;-23148.66;;;24.44;nan
5296;BME280;2670;42.720;23.336;2022-07-21T08:02:27;-23153.75;;;24.62;nan
5296;BME280;2670;42.720;23.336;2022-07-21T08:04:53;-23154.75;;;24.65;nan
5296;BME280;2670;42.720;23.336;2022-07-21T08:07:20;-23158.84;;;24.79;nan
5296;BME280;2670;42.720;23.336;2022-07-21T08:09:47;-23161.00;;;24.87;nan
5296;BME280;2670;42.720;23.336;2022-07-21T08:12:15;-23168.13;;;25.12;nan
5296;BME280;2670;42.720;23.336;2022-07-21T08:14:42;-23169.75;;;25.18;nan
5296;BME280;2670;42.720;23.336;2022-07-21T08:17:08;-23174.81;;;25.36;nan
5296;BME280;2670;42.720;23.336;2022-07-21T08:19:35;-23174.69;;;25.35;nan
5296;BME280;2670;42.720;23.336;2022-07-21T08:22:02;-23179.75;;;25.53;nan
5296;BME280;2670;42.720;23.336;2022-07-21T08:24:29;-23186.00;;;25.75;nan
5296;BME280;2670;42.720;23.336;2022-07-21T08:26:55;-23188.63;;;25.84;nan
5296;BME280;2670;42.720;23.336;2022-07-21T08:29:23;-23190.09;;;25.89;nan
5296;BME280;2670;42.720;23.336;2022-07-21T08:31:50;-23192.84;;;25.99;nan
5296;BME280;2670;42.720;23.336;2022-07-21T08:34:17;-23193.72;;;26.02;nan
5296;BME280;2670;42.720;23.336;2022-07-21T08:36:44;-23197.19;;;26.14;nan
5296;BME280;2670;42.720;23.336;2022-07-21T08:39:10;-23200.09;;;26.24;nan
5296;BME280;2670;42.720;23.336;2022-07-21T08:41:37;-23202.84;;;26.34;nan
5296;BME280;2670;42.720;23.336;2022-07-21T08:44:06;-23207.94;;;26.52;nan
5296;BME280;2670;42.720;23.336;2022-07-21T08:46:37;-23211.13;;;26.63;nan
5296;BME280;2670;42.720;23.336;2022-07-21T08:49:05;-23212.56;;;26.68;nan
5296;BME280;2670;42.720;23.336;2022-07-21T08:51:33;-23221.28;;;26.99;nan
5296;BME280;2670;42.720;23.336;2022-07-21T08:54:01;-23219.69;;;26.93;nan
5296;BME280;2670;42.720;23.336;2022-07-21T08:56:28;-23221.28;;;26.99;nan
5296;BME280;2670;42.720;23.336;2022-07-21T08:58:54;-23226.06;;;27.16;nan
5296;BME280;2670;42.720;23.336;2022-07-21T09:01:21;-23229.53;;;27.28;nan
5296;BME280;2670;42.720;23.336;2022-07-21T09:03:51;-23235.19;;;27.48;nan
5296;BME280;2670;42.720;23.336;2022-07-21T09:06:18;-23234.03;;;27.44;nan
5296;BME280;2670;42.720;23.336;2022-07-21T09:08:46;-23233.59;;;27.42;nan
5296;BME280;2670;42.720;23.336;2022-07-21T09:11:15;-23233.75;;;27.43;nan
5296;BME280;2670;42.720;23.336;2022-07-21T09:13:44;-23236.06;;;27.51;nan
5296;BME280;2670;42.720;23.336;2022-07-21T09:16:12;-23240.25;;;27.66;nan
5296;BME280;2670;42.720;23.336;2022-07-21T09:18:51;-23242.44;;;27.73;nan
5296;BME280;2670;42.720;23.336;2022-07-21T09:21:18;-23247.50;;;27.91;nan
5296;BME280;2670;42.720;23.336;2022-07-21T09:23:45;-23252.13;;;28.08;nan
5296;BME280;2670;42.720;23.336;2022-07-21T09:26:12;-23256.34;;;28.22;nan
5296;BME280;2670;42.720;23.336;2022-07-21T09:28:40;-23258.06;;;28.28;nan
5296;BME280;2670;42.720;23.336;2022-07-21T09:31:08;-23259.66;;;28.34;nan
5296;BME280;2670;42.720;23.336;2022-07-21T09:33:38;-23263.41;;;28.47;nan
5296;BME280;2670;42.720;23.336;2022-07-21T09:36:09;-23269.34;;;28.68;nan
5296;BME280;2670;42.720;23.336;2022-07-21T09:38:37;-23271.94;;;28.77;nan
5296;BME280;2670;42.720;23.336;2022-07-21T09:41:15;-23274.56;;;28.87;nan
5296;BME280;2670;42.720;23.336;2022-07-21T09:43:44;-23276.28;;;28.93;nan
5296;BME280;2670;42.720;23.336;2022-07-21T09:46:16;-23276.28;;;28.93;nan
5296;BME280;2670;42.720;23.336;2022-07-21T09:48:44;-23277.59;;;28.97;nan
5296;BME280;2670;42.720;23.336;2022-07-21T09:51:25;-23280.06;;;29.06;nan
5296;BME280;2670;42.720;23.336;2022-07-21T09:53:55;-23282.06;;;29.13;nan
5296;BME280;2670;42.720;23.336;2022-07-21T09:56:26;-23289.28;;;29.39;nan
5296;BME280;2670;42.720;23.336;2022-07-21T09:58:55;-23288.44;;;29.36;nan
5296;BME280;2670;42.720;23.336;2022-07-21T10:01:24;-23292.03;;;29.48;nan
5296;BME280;2670;42.720;23.336;2022-07-21T10:03:51;-23294.63;;;29.58;nan
5296;BME280;2670;42.720;23.336;2022-07-21T10:06:20;-23301.00;;;29.80;nan
5296;BME280;2670;42.720;23.336;2022-07-21T10:08:51;-23309.94;;;30.12;nan
5296;BME280;2670;42.720;23.336;2022-07-21T10:11:18;-23309.50;;;30.10;nan
5296;BME280;2670;42.720;23.336;2022-07-21T10:13:45;-23312.69;;;30.21;nan
5296;BME280;2670;42.720;23.336;2022-07-21T10:16:12;-23315.00;;;30.30;nan
5296;BME280;2670;42.720;23.336;2022-07-21T10:18:53;-23315.72;;;30.32;nan
5296;BME280;2670;42.720;23.336;2022-07-21T10:21:41;-23319.47;;;30.45;nan
5296;BME280;2670;42.720;23.336;2022-07-21T10:24:11;-23313.25;;;30.23;nan
5296;BME280;2670;42.720;23.336;2022-07-21T10:26:39;-23318.75;;;30.43;nan
5296;BME280;2670;42.720;23.336;2022-07-21T10:29:56;-23321.63;;;30.53;nan
5296;BME280;2670;42.720;23.336;2022-07-21T10:32:25;-23326.66;;;30.71;nan
5296;BME280;2670;42.720;23.336;2022-07-21T10:34:53;-23330.72;;;30.85;nan
5296;BME280;2670;42.720;23.336;2022-07-21T10:37:48;-23334.31;;;30.98;nan
5296;BME280;2670;42.720;23.336;2022-07-21T10:40:38;-23330.13;;;30.83;nan
5296;BME280;2670;42.720;23.336;2022-07-21T10:46:36;-23329.13;;;30.80;nan
5296;BME280;2670;42.720;23.336;2022-07-21T10:49:04;-23333.31;;;30.94;nan
5296;BME280;2670;42.720;23.336;2022-07-21T10:51:33;-23337.19;;;31.08;nan
5296;BME280;2670;42.720;23.336;2022-07-21T10:54:21;-23335.75;;;31.03;nan
5296;BME280;2670;42.720;23.336;2022-07-21T10:57:25;-23333.88;;;30.96;nan
5296;BME280;2670;42.720;23.336;2022-07-21T11:00:15;-23338.34;;;31.12;nan
5296;BME280;2670;42.720;23.336;2022-07-21T11:02:43;-23335.16;;;31.01;nan
5296;BME280;2670;42.720;23.336;2022-07-21T11:05:09;-23337.63;;;31.10;nan
5296;BME280;2670;42.720;23.336;2022-07-21T11:08:11;-23339.78;;;31.17;nan
5296;BME280;2670;42.720;23.336;2022-07-21T11:10:39;-23342.22;;;31.26;nan
5296;BME280;2670;42.720;23.336;2022-07-21T11:13:07;-23337.03;;;31.08;nan
5296;BME280;2670;42.720;23.336;2022-07-21T11:15:46;-23345.69;;;31.38;nan
5296;BME280;2670;42.720;23.336;2022-07-21T11:18:16;-23344.25;;;31.33;nan
5296;BME280;2670;42.720;23.336;2022-07-21T11:20:44;-23345.41;;;31.37;nan
5296;BME280;2670;42.720;23.336;2022-07-21T11:23:34;-23347.41;;;31.44;nan
5296;BME280;2670;42.720;23.336;2022-07-21T11:26:01;-23344.53;;;31.34;nan
5296;BME280;2670;42.720;23.336;2022-07-21T11:28:30;-23345.13;;;31.36;nan
5296;BME280;2670;42.720;23.336;2022-07-21T11:31:08;-23343.53;;;31.31;nan
5296;BME280;2670;42.720;23.336;2022-07-21T11:33:36;-23344.53;;;31.34;nan
5296;BME280;2670;42.720;23.336;2022-07-21T11:36:03;-23342.09;;;31.25;nan
5296;BME280;2670;42.720;23.336;2022-07-21T11:38:30;-23350.00;;;31.54;nan
5296;BME280;2670;42.720;23.336;2022-07-21T11:41:13;-23360.38;;;31.90;nan
5296;BME280;2670;42.720;23.336;2022-07-21T11:43:41;-23358.50;;;31.84;nan
5296;BME280;2670;42.720;23.336;2022-07-21T11:46:09;-23354.19;;;31.68;nan
5296;BME280;2670;42.720;23.336;2022-07-21T11:48:35;-23351.72;;;31.60;nan
5296;BME280;2670;42.720;23.336;2022-07-21T11:51:03;-23353.47;;;31.66;nan
5296;BME280;2670;42.720;23.336;2022-07-21T11:53:30;-23353.91;;;31.67;nan
5296;BME280;2670;42.720;23.336;2022-07-21T11:55:58;-23358.78;;;31.85;nan
5296;BME280;2670;42.720;23.336;2022-07-21T11:58:25;-23355.63;;;31.73;nan
5296;BME280;2670;42.720;23.336;2022-07-21T12:01:05;-23353.75;;;31.67;nan
5296;BME280;2670;42.720;23.336;2022-07-21T12:03:32;-23357.94;;;31.82;nan
5296;BME280;2670;42.720;23.336;2022-07-21T12:06:00;-23359.38;;;31.87;nan
5296;BME280;2670;42.720;23.336;2022-07-21T12:08:29;-23362.53;;;31.98;nan
5296;BME280;2670;42.720;23.336;2022-07-21T12:11:05;-23365.97;;;32.10;nan
5296;BME280;2670;42.720;23.336;2022-07-21T12:13:53;-23363.69;;;32.02;nan
5296;BME280;2670;42.720;23.336;2022-07-21T12:16:22;-23363.09;;;32.00;nan
5296;BME280;2670;42.720;23.336;2022-07-21T12:19:11;-23366.56;;;32.12;nan
5296;BME280;2670;42.720;23.336;2022-07-21T12:21:46;-23368.13;;;32.18;nan
5296;BME280;2670;42.720;23.336;2022-07-21T12:24:15;-23371.00;;;32.28;nan
5296;BME280;2670;42.720;23.336;2022-07-21T12:26:43;-23374.03;;;32.39;nan
5296;BME280;2670;42.720;23.336;2022-07-21T12:29:10;-23369.56;;;32.23;nan
5296;BME280;2670;42.720;23.336;2022-07-21T12:31:38;-23366.84;;;32.13;nan
5296;BME280;2670;42.720;23.336;2022-07-21T12:34:12;-23370.88;;;32.28;nan
5296;BME280;2670;42.720;23.336;2022-07-21T12:36:40;-23372.03;;;32.32;nan
5296;BME280;2670;42.720;23.336;2022-07-21T12:39:18;-23372.16;;;32.32;nan
5296;BME280;2670;42.720;23.336;2022-07-21T12:42:04;-23371.59;;;32.30;nan
5296;BME280;2670;42.720;23.336;2022-07-21T12:44:32;-23372.59;;;32.34;nan
5296;BME280;2670;42.720;23.336;2022-07-21T12:47:16;-23372.31;;;32.33;nan
5296;BME280;2670;42.720;23.336;2022-07-21T12:49:57;-23375.63;;;32.44;nan
5296;BME280;2670;42.720;23.336;2022-07-21T12:52:25;-23373.03;;;32.35;nan
5296;BME280;2670;42.720;23.336;2022-07-21T12:54:52;-23375.47;;;32.44;nan
5296;BME280;2670;42.720;23.336;2022-07-21T12:57:19;-23371.44;;;32.30;nan
5296;BME280;2670;42.720;23.336;2022-07-21T12:59:46;-23374.63;;;32.41;nan
5296;BME280;2670;42.720;23.336;2022-07-21T13:02:14;-23376.34;;;32.47;nan
5296;BME280;2670;42.720;23.336;2022-07-21T13:04:41;-23374.31;;;32.40;nan
5296;BME280;2670;42.720;23.336;2022-07-21T13:07:08;-23373.91;;;32.38;nan
5296;BME280;2670;42.720;23.336;2022-07-21T13:09:34;-23375.03;;;32.42;nan
5296;BME280;2670;42.720;23.336;2022-07-21T13:12:01;-23376.78;;;32.48;nan
5296;BME280;2670;42.720;23.336;2022-07-21T13:14:28;-23379.22;;;32.57;nan
5296;BME280;2670;42.720;23.336;2022-07-21T13:16:55;-23383.66;;;32.73;nan
5296;BME280;2670;42.720;23.336;2022-07-21T13:19:24;-23379.06;;;32.57;nan
5296;BME280;2670;42.720;23.336;2022-07-21T13:21:51;-23379.50;;;32.58;nan
5296;BME280;2670;42.720;23.336;2022-07-21T13:24:19;-23375.47;;;32.44;nan
5296;BME280;2670;42.720;23.336;2022-07-21T13:26:45;-23371.72;;;32.31;nan
5296;BME280;2670;42.720;23.336;2022-07-21T13:29:12;-23374.75;;;32.41;nan
5296;BME280;2670;42.720;23.336;2022-07-21T13:31:39;-23369.00;;;32.21;nan
5296;BME280;2670;42.720;23.336;2022-07-21T13:34:06;-23372.75;;;32.34;nan
5296;BME280;2670;42.720;23.336;2022-07-21T13:36:35;-23373.59;;;32.37;nan
5296;BME280;2670;42.720;23.336;2022-07-21T13:39:03;-23377.06;;;32.50;nan